Time;durP1;ratioP1;P1;durP2;ratioP2;P2;SDS_P1;SDS_P2;PMS_P1;PMS_P2;Temp;Humidity;BMP_temperature;BMP_pressure;BME280_temperature;BME280_humidity;BME280_pressure;Samples;Min_cycle;Max_cycle;Signal;HPM_P1;HPM_P2
2021/06/01 00:01:39;;;;;;;13.18;8.75;;;;;;;16.15;100.00;101632.06;5073935;28;20123;-67
2021/06/01 00:04:07;;;;;;;11.75;9.30;;;;;;;16.16;100.00;101636.47;5074247;28;20530;-64
2021/06/01 00:06:33;;;;;;;11.90;9.02;;;;;;;16.15;100.00;101623.78;5073863;28;20032;-64
2021/06/01 00:09:00;;;;;;;13.13;9.57;;;;;;;16.15;100.00;101626.56;5073686;28;20048;-67
2021/06/01 00:11:25;;;;;;;10.80;8.85;;;;;;;16.14;100.00;101627.63;5073887;28;20040;-64
2021/06/01 00:13:51;;;;;;;12.98;9.95;;;;;;;16.11;100.00;101612.44;5073807;28;20040;-65
2021/06/01 00:16:17;;;;;;;14.27;9.32;;;;;;;16.10;100.00;101620.97;5072756;28;20039;-65
2021/06/01 00:18:44;;;;;;;13.20;9.00;;;;;;;16.07;100.00;101613.22;5073759;28;20051;-65
2021/06/01 00:21:11;;;;;;;15.18;10.35;;;;;;;16.06;100.00;101614.31;5073595;28;20036;-62
2021/06/01 00:23:37;;;;;;;14.48;9.52;;;;;;;16.05;100.00;101612.66;5073413;28;20119;-65
2021/06/01 00:26:13;;;;;;;12.95;9.80;;;;;;;16.04;100.00;101605.47;5073570;28;20490;-67
2021/06/01 00:28:40;;;;;;;14.43;10.45;;;;;;;16.03;100.00;101598.31;5072387;28;20039;-66
2021/06/01 00:31:07;;;;;;;11.90;10.32;;;;;;;16.01;100.00;101601.34;5073412;28;20052;-63
2021/06/01 00:33:33;;;;;;;13.68;8.98;;;;;;;16.02;100.00;101596.66;5073708;28;20483;-67
2021/06/01 00:35:59;;;;;;;11.55;9.68;;;;;;;16.01;100.00;101589.47;5073391;28;20039;-65
2021/06/01 00:38:25;;;;;;;16.83;10.13;;;;;;;16.01;100.00;101589.47;5073134;28;20037;-65
2021/06/01 00:40:51;;;;;;;14.57;9.88;;;;;;;16.01;100.00;101589.47;5073325;28;20355;-63
2021/06/01 00:43:16;;;;;;;15.57;9.32;;;;;;;16.00;100.00;101590.56;5073167;28;20029;-65
2021/06/01 00:45:42;;;;;;;17.40;10.57;;;;;;;16.02;100.00;101588.38;5073104;28;20106;-65
2021/06/01 00:48:08;;;;;;;13.38;9.40;;;;;;;16.01;100.00;101590.31;5073223;28;20052;-67
2021/06/01 00:50:34;;;;;;;14.88;10.10;;;;;;;16.00;100.00;101571.28;5073460;28;20036;-65
2021/06/01 00:53:00;;;;;;;17.27;11.10;;;;;;;15.98;100.00;101569.63;5072839;28;20028;-65
2021/06/01 00:55:27;;;;;;;17.95;10.60;;;;;;;15.98;100.00;101569.63;5073215;28;20051;-67
2021/06/01 00:57:53;;;;;;;14.60;10.00;;;;;;;15.98;100.00;101561.34;5073078;28;20043;-65
2021/06/01 01:00:44;;;;;;;15.55;10.63;;;;;;;15.96;100.00;101566.25;5073074;28;20036;-68
2021/06/01 01:03:10;;;;;;;20.83;10.50;;;;;;;15.95;100.00;101561.84;5072800;28;20048;-66
2021/06/01 01:05:43;;;;;;;16.50;10.85;;;;;;;15.94;100.00;101545.59;5072509;28;20043;-63
2021/06/01 01:08:21;;;;;;;17.83;10.35;;;;;;;15.92;100.00;101548.59;5073076;28;20078;-64
2021/06/01 01:10:49;;;;;;;15.65;9.88;;;;;;;15.91;100.00;101541.44;5073118;28;20036;-63
2021/06/01 01:13:15;;;;;;;16.90;9.88;;;;;;;15.89;100.00;101538.09;5072781;28;20041;-63
2021/06/01 01:15:42;;;;;;;13.98;9.65;;;;;;;15.88;100.00;101533.69;5072838;28;20113;-63
2021/06/01 01:18:14;;;;;;;18.95;10.15;;;;;;;15.89;100.00;101532.59;5073151;28;20032;-64
2021/06/01 01:20:57;;;;;;;15.93;10.95;;;;;;;15.90;100.00;101528.75;5072881;28;20060;-63
2021/06/01 01:23:27;;;;;;;15.55;9.98;;;;;;;15.88;100.00;101525.44;5072862;28;20029;-65
2021/06/01 01:26:03;;;;;;;22.77;10.80;;;;;;;15.87;100.00;101523.75;5072957;28;20032;-65
2021/06/01 01:29:03;;;;;;;13.52;9.57;;;;;;;15.87;100.00;101512.75;5072630;28;20467;-63
2021/06/01 01:31:44;;;;;;;17.77;10.20;;;;;;;15.85;100.00;101514.94;5072540;28;20093;-65
2021/06/01 01:34:10;;;;;;;16.98;9.70;;;;;;;15.84;100.00;101502.25;5072590;28;20028;-67
2021/06/01 01:36:37;;;;;;;14.88;9.90;;;;;;;15.84;100.00;101506.94;5072290;28;20414;-65
2021/06/01 01:39:05;;;;;;;18.45;10.30;;;;;;;15.83;100.00;101499.75;5072485;28;20502;-63
2021/06/01 01:41:36;;;;;;;15.95;9.00;;;;;;;15.83;100.00;101497.00;5072336;28;20032;-67
2021/06/01 01:44:06;;;;;;;14.90;9.65;;;;;;;15.83;100.00;101506.09;5072313;28;20037;-66
2021/06/01 01:49:17;;;;;;;15.70;9.65;;;;;;;15.81;100.00;101500.03;5070641;28;20085;-67
2021/06/01 01:51:46;;;;;;;15.82;9.10;;;;;;;15.82;100.00;101493.41;5071991;28;20063;-67
2021/06/01 01:54:23;;;;;;;11.15;9.40;;;;;;;15.80;100.00;101495.63;5071845;28;20036;-65
2021/06/01 01:56:53;;;;;;;16.55;9.68;;;;;;;15.79;100.00;101488.41;5070503;28;20071;-66
2021/06/01 01:59:24;;;;;;;17.13;9.30;;;;;;;15.81;100.00;101485.44;5071767;28;20055;-63
2021/06/01 02:01:51;;;;;;;16.48;9.05;;;;;;;15.80;100.00;101495.63;5072033;28;20043;-67
2021/06/01 02:04:29;;;;;;;19.25;10.50;;;;;;;15.79;100.00;101482.91;5070244;28;20036;-68
2021/06/01 02:06:56;;;;;;;14.48;8.65;;;;;;;15.80;100.00;101489.28;5071530;28;20059;-64
2021/06/01 02:09:22;;;;;;;18.23;10.57;;;;;;;15.79;100.00;101482.91;5071581;28;20124;-63
2021/06/01 02:11:48;;;;;;;16.42;9.98;;;;;;;15.79;100.00;101479.31;5071552;28;20036;-64
2021/06/01 02:14:17;;;;;;;16.35;8.88;;;;;;;15.79;100.00;101488.41;5071231;28;20445;-65
2021/06/01 02:16:43;;;;;;;15.40;8.98;;;;;;;15.79;100.00;101482.06;5071517;28;20024;-64
2021/06/01 02:19:11;;;;;;;14.13;8.88;;;;;;;15.78;100.00;101481.25;5071709;28;20043;-68
2021/06/01 02:24:32;;;;;;;15.27;8.90;;;;;;;15.76;100.00;101475.16;5071253;28;20044;-68
2021/06/01 02:27:03;;;;;;;22.15;11.50;;;;;;;15.75;100.00;101470.75;5071231;28;20044;-64
2021/06/01 02:29:41;;;;;;;19.17;10.65;;;;;;;15.73;100.00;101467.44;5071060;28;20036;-66
2021/06/01 02:32:12;;;;;;;15.38;9.63;;;;;;;15.72;100.00;101460.25;5071111;28;20044;-62
2021/06/01 02:34:39;;;;;;;16.65;10.00;;;;;;;15.71;100.00;101461.34;5071173;28;20047;-67
2021/06/01 02:37:07;;;;;;;18.10;9.55;;;;;;;15.72;100.00;101470.44;5071150;28;20036;-65
2021/06/01 02:39:34;;;;;;;15.15;9.98;;;;;;;15.71;100.00;101466.88;5071037;28;20033;-66
2021/06/01 02:42:02;;;;;;;13.60;9.68;;;;;;;15.71;100.00;101474.28;5070974;28;20131;-64
2021/06/01 02:44:34;;;;;;;24.35;9.88;;;;;;;15.68;100.00;101464.63;5070894;28;20410;-64
2021/06/01 02:47:03;;;;;;;16.60;9.25;;;;;;;15.69;100.00;101477.31;5070991;28;20115;-63
2021/06/01 02:49:29;;;;;;;18.58;9.05;;;;;;;15.68;100.00;101470.97;5070760;28;20447;-64
2021/06/01 02:51:55;;;;;;;14.85;9.02;;;;;;;15.68;100.00;101470.16;5070893;28;20036;-65
2021/06/01 02:54:22;;;;;;;16.50;9.55;;;;;;;15.67;100.00;101482.25;5070989;28;20060;-65
2021/06/01 02:56:51;;;;;;;19.90;9.95;;;;;;;15.67;100.00;101479.50;5070810;28;20056;-68
2021/06/01 02:59:18;;;;;;;14.30;8.23;;;;;;;15.66;100.00;101472.34;5070784;28;20139;-66
2021/06/01 03:01:48;;;;;;;15.55;8.00;;;;;;;15.64;100.00;101474.53;5070763;28;20037;-65
2021/06/01 03:04:13;;;;;;;13.45;8.10;;;;;;;15.62;100.00;101469.28;5070611;28;20040;-65
2021/06/01 03:06:45;;;;;;;16.50;8.98;;;;;;;15.60;100.00;101463.16;5070664;28;20032;-62
2021/06/01 03:09:11;;;;;;;14.40;8.23;;;;;;;15.60;100.00;101467.84;5070864;28;20042;-65
2021/06/01 03:11:37;;;;;;;14.75;8.75;;;;;;;15.57;100.00;101471.09;5069526;28;20040;-65
2021/06/01 03:14:03;;;;;;;13.52;7.78;;;;;;;15.57;100.00;101462.84;5070502;28;20032;-67
2021/06/01 03:16:29;;;;;;;19.50;8.02;;;;;;;15.54;100.00;101463.34;5070483;28;20028;-65
2021/06/01 03:18:55;;;;;;;17.40;8.88;;;;;;;15.51;100.00;101464.72;5070599;28;20542;-65
2021/06/01 03:21:21;;;;;;;15.88;8.05;;;;;;;15.49;100.00;101455.06;5069285;28;20431;-64
2021/06/01 03:23:47;;;;;;;21.95;8.80;;;;;;;15.46;100.00;101461.91;5070501;28;20087;-62
2021/06/01 03:26:14;;;;;;;19.90;9.32;;;;;;;15.44;100.00;101455.81;5070632;28;20043;-64
2021/06/01 03:28:40;;;;;;;15.75;8.90;;;;;;;15.42;100.00;101465.44;5071075;28;20474;-63
2021/06/01 03:31:06;;;;;;;17.52;8.68;;;;;;;15.40;100.00;101462.94;5074459;28;20498;-64
2021/06/01 03:33:34;;;;;;;20.10;8.95;;;;;;;15.38;100.00;101457.69;5073125;28;20055;-64
2021/06/01 03:36:00;;;;;;;18.48;9.27;;;;;;;15.37;100.00;101453.28;5074682;28;20032;-66
2021/06/01 03:38:26;;;;;;;15.82;8.95;;;;;;;15.36;100.00;101450.78;5074416;28;20050;-65
2021/06/01 03:40:52;;;;;;;17.38;8.82;;;;;;;15.35;100.00;101449.97;5074451;28;20529;-66
2021/06/01 03:43:18;;;;;;;14.77;8.77;;;;;;;15.35;100.00;101449.97;5074150;28;20090;-65
2021/06/01 03:45:44;;;;;;;20.67;9.85;;;;;;;15.32;100.00;101447.72;5074581;28;20032;-65
2021/06/01 03:48:10;;;;;;;16.33;9.43;;;;;;;15.30;100.00;101441.66;5074315;28;20471;-64
2021/06/01 03:50:36;;;;;;;17.15;8.45;;;;;;;15.29;100.00;101440.00;5074161;28;20091;-64
2021/06/01 03:53:03;;;;;;;15.63;9.38;;;;;;;15.27;100.00;101442.19;5074201;28;20040;-63
2021/06/01 03:55:29;;;;;;;22.88;10.25;;;;;;;15.27;100.00;101436.69;5074238;28;20479;-66
2021/06/01 03:57:55;;;;;;;20.55;10.07;;;;;;;15.27;100.00;101435.81;5074387;28;20032;-67
2021/06/01 04:00:24;;;;;;;21.13;9.82;;;;;;;15.25;100.00;101443.50;5074070;28;20044;-64
2021/06/01 04:02:50;;;;;;;23.10;10.10;;;;;;;15.23;100.00;101438.25;5074268;28;20029;-68
2021/06/01 04:05:16;;;;;;;18.83;9.75;;;;;;;15.22;100.00;101428.34;5074484;28;20115;-67
2021/06/01 04:07:45;;;;;;;18.00;9.60;;;;;;;15.22;100.00;101438.53;5072676;28;20037;-64
2021/06/01 04:10:12;;;;;;;19.67;9.63;;;;;;;15.19;100.00;101439.88;5074294;28;20045;-66
2021/06/01 04:12:37;;;;;;;21.73;10.50;;;;;;;15.18;100.00;101438.22;5073585;28;20033;-62
2021/06/01 04:15:04;;;;;;;21.20;11.05;;;;;;;15.17;100.00;101433.78;5073695;28;20051;-65
2021/06/01 04:17:29;;;;;;;23.48;10.50;;;;;;;15.16;100.00;101426.63;5073679;28;20037;-65
2021/06/01 04:19:55;;;;;;;17.35;9.45;;;;;;;15.17;100.00;101442.06;5073755;28;20040;-65
2021/06/01 04:22:21;;;;;;;21.58;10.38;;;;;;;15.16;100.00;101445.91;5073801;28;20039;-63
2021/06/01 04:24:47;;;;;;;15.90;9.40;;;;;;;15.16;100.00;101440.41;5073567;28;20259;-65
2021/06/01 04:27:12;;;;;;;24.85;9.88;;;;;;;15.16;100.00;101439.56;5073403;28;20078;-66
2021/06/01 04:29:38;;;;;;;19.52;9.77;;;;;;;15.15;100.00;101438.72;5073481;28;20339;-61
2021/06/01 04:32:04;;;;;;;19.90;8.45;;;;;;;15.15;100.00;101447.00;5073322;28;20073;-68
2021/06/01 04:34:29;;;;;;;21.30;9.07;;;;;;;15.16;100.00;101445.91;5073268;28;20072;-65
2021/06/01 04:36:56;;;;;;;21.77;9.93;;;;;;;15.17;100.00;101453.06;5073763;28;20044;-62
2021/06/01 04:39:21;;;;;;;23.27;8.82;;;;;;;15.18;100.00;101454.72;5072197;28;20046;-64
2021/06/01 04:41:47;;;;;;;14.98;9.18;;;;;;;15.20;100.00;101457.22;5072104;28;20394;-64
2021/06/01 04:44:13;;;;;;;22.08;9.30;;;;;;;15.22;100.00;101450.34;5073215;28;20446;-66
2021/06/01 04:46:38;;;;;;;17.95;8.75;;;;;;;15.24;100.00;101437.16;5073240;28;20494;-63
2021/06/01 04:49:04;;;;;;;20.33;10.13;;;;;;;15.26;100.00;101440.50;5073053;28;20043;-64
2021/06/01 04:51:30;;;;;;;15.80;9.13;;;;;;;15.28;100.00;101435.59;5073124;28;20033;-63
2021/06/01 04:53:58;;;;;;;22.00;9.48;;;;;;;15.32;100.00;101444.16;5073089;28;20399;-63
2021/06/01 04:56:24;;;;;;;19.65;9.35;;;;;;;15.32;100.00;101439.47;5073172;28;20133;-65
2021/06/01 04:58:50;;;;;;;17.15;9.88;;;;;;;15.33;100.00;101432.88;5072931;28;20033;-64
2021/06/01 05:01:17;;;;;;;18.80;9.00;;;;;;;15.35;100.00;101436.19;5072985;28;20032;-64
2021/06/01 05:03:42;;;;;;;27.90;9.18;;;;;;;15.36;100.00;101440.59;5072581;28;20048;-68
2021/06/01 05:06:09;;;;;;;24.83;10.48;;;;;;;15.37;100.00;101442.28;5072924;28;20044;-67
2021/06/01 05:08:36;;;;;;;19.73;9.15;;;;;;;15.38;100.00;101437.59;5072763;28;20056;-65
2021/06/01 05:11:04;;;;;;;20.02;9.18;;;;;;;15.40;100.00;101443.66;5072774;28;20028;-65
2021/06/01 05:13:30;;;;;;;22.17;9.27;;;;;;;15.41;100.00;101436.25;5072731;28;20044;-62
2021/06/01 05:15:56;;;;;;;19.27;9.45;;;;;;;15.44;100.00;101435.72;5072869;28;20040;-65
2021/06/01 05:18:22;;;;;;;18.40;9.20;;;;;;;15.47;100.00;101440.72;5072631;28;20056;-65
2021/06/01 05:20:48;;;;;;;19.17;9.48;;;;;;;15.48;100.00;101431.38;5072562;28;20123;-68
2021/06/01 05:23:14;;;;;;;15.90;9.18;;;;;;;15.53;100.00;101428.66;5072371;28;20037;-62
2021/06/01 05:25:41;;;;;;;20.20;8.65;;;;;;;15.55;100.00;101437.50;5072386;28;20039;-65
2021/06/01 05:28:08;;;;;;;15.40;9.13;;;;;;;15.60;100.00;101440.31;5072444;28;20064;-66
2021/06/01 05:30:38;;;;;;;20.55;9.93;;;;;;;15.64;100.00;101441.47;5071236;28;20045;-63
2021/06/01 05:33:13;;;;;;;20.77;9.82;;;;;;;15.68;100.00;101448.13;5072042;28;20048;-64
2021/06/01 05:35:43;;;;;;;16.63;8.52;;;;;;;15.74;100.00;101440.72;5072732;28;20036;-62
2021/06/01 05:38:09;;;;;;;18.55;8.68;;;;;;;15.78;100.00;101436.34;5072181;28;20041;-65
2021/06/01 05:40:34;;;;;;;22.38;10.07;;;;;;;15.84;100.00;101438.91;5072029;28;20041;-66
2021/06/01 05:43:00;;;;;;;15.82;9.00;;;;;;;15.90;100.00;101439.75;5072318;28;20367;-63
2021/06/01 05:45:26;;;;;;;21.67;10.00;;;;;;;15.95;100.00;101437.88;5072146;28;20044;-64
2021/06/01 05:47:52;;;;;;;19.42;9.70;;;;;;;15.97;100.00;101434.88;5071992;28;20024;-65
2021/06/01 05:50:17;;;;;;;19.27;9.65;;;;;;;16.00;100.00;101433.50;5072103;28;20040;-65
2021/06/01 05:52:43;;;;;;;16.48;8.68;;;;;;;16.03;100.00;101430.22;5071573;28;20406;-62
2021/06/01 05:55:09;;;;;;;15.82;9.38;;;;;;;16.07;100.00;101434.09;5071713;28;20067;-67
2021/06/01 05:57:35;;;;;;;18.83;9.45;;;;;;;16.14;100.00;101437.44;5071739;28;20398;-66
2021/06/01 06:00:04;;;;;;;21.02;10.35;;;;;;;16.21;100.00;101435.31;5071714;28;20040;-65
2021/06/01 06:02:30;;;;;;;21.90;9.57;;;;;;;16.27;100.00;101435.06;5071619;28;20029;-64
2021/06/01 06:04:55;;;;;;;16.90;9.27;;;;;;;16.33;100.00;101433.19;5071781;28;20518;-66
2021/06/01 06:07:21;;;;;;;16.92;9.15;;;;;;;16.41;100.00;101435.44;5071703;28;20482;-65
2021/06/01 06:09:46;;;;;;;15.05;9.07;;;;;;;16.48;100.00;101444.28;5071508;28;20089;-68
2021/06/01 06:12:12;;;;;;;18.70;9.10;;;;;;;16.59;100.00;101442.44;5071465;28;20382;-66
2021/06/01 06:14:38;;;;;;;16.55;8.65;;;;;;;16.66;100.00;101437.53;5071699;28;20036;-63
2021/06/01 06:17:10;;;;;;;19.58;8.98;;;;;;;16.77;100.00;101432.91;5071216;28;20062;-65
2021/06/01 06:19:42;;;;;;;17.23;9.10;;;;;;;16.86;100.00;101428.53;5070185;28;20029;-66
2021/06/01 06:22:08;;;;;;;15.77;7.80;;;;;;;16.98;100.00;101433.78;5071482;28;20032;-64
2021/06/01 06:24:34;;;;;;;16.23;7.38;;;;;;;17.10;100.00;101432.47;5071254;28;20047;-63
2021/06/01 06:27:00;;;;;;;13.60;8.25;;;;;;;17.21;100.00;101421.47;5071430;28;20040;-66
2021/06/01 06:29:26;;;;;;;14.93;8.82;;;;;;;17.30;100.00;101428.09;5071303;28;20040;-66
2021/06/01 06:31:51;;;;;;;15.35;8.10;;;;;;;17.39;100.00;101427.31;5070904;28;20075;-63
2021/06/01 06:34:17;;;;;;;17.20;7.55;;;;;;;17.48;100.00;101424.81;5071024;28;20047;-66
2021/06/01 06:36:43;;;;;;;14.23;7.78;;;;;;;17.58;100.00;101427.59;5070974;28;20059;-67
2021/06/01 06:39:09;;;;;;;18.35;8.88;;;;;;;17.62;100.00;101431.47;5071008;28;20566;-64
2021/06/01 06:41:35;;;;;;;14.88;7.72;;;;;;;17.67;100.00;101431.47;5071174;28;20063;-63
2021/06/01 06:44:02;;;;;;;13.77;8.30;;;;;;;17.69;100.00;101425.69;5071032;28;20056;-65
2021/06/01 06:46:36;;;;;;;11.93;7.25;;;;;;;17.73;100.00;101424.06;5070927;28;20098;-65
2021/06/01 06:49:03;;;;;;;14.10;7.28;;;;;;;17.76;100.00;101418.81;5070996;28;20032;-63
2021/06/01 06:51:29;;;;;;;17.60;7.75;;;;;;;17.84;100.00;101422.09;5070849;28;20037;-66
2021/06/01 06:53:56;;;;;;;17.60;8.00;;;;;;;17.94;100.00;101420.19;5070863;28;20490;-65
2021/06/01 06:56:25;;;;;;;13.93;6.80;;;;;;;18.04;100.00;101424.84;5070984;28;20048;-65
2021/06/01 06:58:50;;;;;;;19.35;7.95;;;;;;;18.14;100.00;101424.84;5070811;28;20033;-63
2021/06/01 07:01:17;;;;;;;14.25;7.32;;;;;;;18.24;100.00;101419.31;5070801;28;20509;-65
2021/06/01 07:03:43;;;;;;;15.50;7.53;;;;;;;18.36;100.00;101421.75;5069937;28;20032;-64
2021/06/01 07:06:09;;;;;;;19.15;7.25;;;;;;;18.47;100.00;101422.59;5070786;28;20042;-68
2021/06/01 07:08:34;;;;;;;14.90;7.90;;;;;;;18.55;100.00;101419.22;5070833;28;20371;-62
2021/06/01 07:11:01;;;;;;;16.85;7.70;;;;;;;18.55;100.00;101411.75;5070720;28;20058;-62
2021/06/01 07:13:38;;;;;;;11.80;7.38;;;;;;;18.65;100.00;101424.78;5070572;28;20068;-65
2021/06/01 07:16:04;;;;;;;16.45;7.07;;;;;;;18.68;100.00;101421.44;5070693;28;20032;-67
2021/06/01 07:18:31;;;;;;;14.38;6.90;;;;;;;18.75;100.00;101424.75;5070598;28;20101;-66
2021/06/01 07:21:00;;;;;;;15.20;7.28;;;;;;;18.79;100.00;101420.28;5070736;28;20391;-64
2021/06/01 07:23:26;;;;;;;12.55;6.97;;;;;;;18.82;100.00;101422.50;5070339;28;20573;-65
2021/06/01 07:25:52;;;;;;;13.70;6.72;;;;;;;18.82;100.00;101427.19;5070269;28;20085;-69
2021/06/01 07:28:17;;;;;;;13.70;6.68;;;;;;;18.82;100.00;101422.50;5069576;28;20483;-65
2021/06/01 07:30:43;;;;;;;10.55;6.82;;;;;;;18.84;100.00;101434.09;5070211;28;20505;-66
2021/06/01 07:33:09;;;;;;;14.52;6.78;;;;;;;18.81;100.00;101423.59;5070160;28;20055;-67
2021/06/01 07:35:35;;;;;;;10.70;6.70;;;;;;;18.84;100.00;101428.56;5070393;28;20033;-65
